createdAt,value
2018-10-16T00:04:38.967Z,14.75
2018-10-16T00:10:29.862Z,15.19
2018-10-16T00:16:20.743Z,16.77
2018-10-16T00:22:11.643Z,15.95
2018-10-16T00:28:02.541Z,15.17
2018-10-16T00:33:53.429Z,15.6
2018-10-16T00:39:44.315Z,14.07
2018-10-16T00:45:35.165Z,14.24
2018-10-16T00:51:26.078Z,15.43
2018-10-16T00:57:16.969Z,17.95
2018-10-16T01:03:07.823Z,17.51
2018-10-16T01:08:58.705Z,14.66
2018-10-16T01:14:49.611Z,16.42
2018-10-16T01:20:40.486Z,14.17
2018-10-16T01:26:31.398Z,16.31
2018-10-16T01:32:22.273Z,16
2018-10-16T01:38:13.193Z,15.13
2018-10-16T01:44:04.037Z,15.51
2018-10-16T01:49:54.955Z,15.07
2018-10-16T01:55:45.909Z,15.49
2018-10-16T02:01:36.691Z,14.39
2018-10-16T02:07:27.584Z,14.62
2018-10-16T02:13:18.493Z,14.73
2018-10-16T02:19:09.382Z,13.77
2018-10-16T02:25:00.230Z,14.14
2018-10-16T02:30:51.131Z,13.92
2018-10-16T02:36:42.059Z,14.78
2018-10-16T02:42:32.893Z,14.75
2018-10-16T02:48:23.787Z,15.47
2018-10-16T02:54:14.683Z,14.37
2018-10-16T03:00:05.591Z,11.55
2018-10-16T03:05:56.517Z,12.54
2018-10-16T03:11:47.326Z,11.32
2018-10-16T03:17:38.248Z,11.18
2018-10-16T03:23:29.145Z,11.62
2018-10-16T03:29:20.012Z,11.8
2018-10-16T03:35:10.870Z,10.26
2018-10-16T03:41:01.774Z,10.46
2018-10-16T03:46:52.667Z,10.78
2018-10-16T03:52:43.541Z,10.64
2018-10-16T03:58:34.443Z,13.65
2018-10-16T04:04:25.293Z,13.08
2018-10-16T04:10:16.187Z,13.73
2018-10-16T04:16:07.099Z,11.57
2018-10-16T04:21:57.980Z,11.92
2018-10-16T04:27:48.884Z,14.6
2018-10-16T04:33:39.765Z,10.62
2018-10-16T04:39:30.623Z,10.21
2018-10-16T04:45:21.510Z,11.41
2018-10-16T04:51:12.400Z,10.29
2018-10-16T04:57:03.362Z,8.9
2018-10-16T05:02:54.180Z,9.53
2018-10-16T05:08:45.076Z,8.48
2018-10-16T05:14:36.048Z,8.02
2018-10-16T05:20:26.873Z,8.11
2018-10-16T05:26:17.778Z,8.16
2018-10-16T05:32:08.627Z,7.8
2018-10-16T05:37:59.520Z,8.29
2018-10-16T05:43:50.420Z,8.36
2018-10-16T05:49:41.295Z,9.46
2018-10-16T05:55:32.207Z,10.19
2018-10-16T06:01:23.078Z,8.12
2018-10-16T06:07:13.989Z,8.46
2018-10-16T06:13:04.891Z,8.54
2018-10-16T06:18:55.752Z,8.44
2018-10-16T06:24:46.651Z,9.01
2018-10-16T06:30:37.578Z,21.63
2018-10-16T06:36:28.436Z,8.56
2018-10-16T06:42:19.346Z,9.4
2018-10-16T06:48:10.384Z,8.87
2018-10-16T06:54:01.132Z,8.25
2018-10-16T06:59:52.019Z,8.83
2018-10-16T07:05:42.925Z,9.77
2018-10-16T07:11:33.790Z,9.7
2018-10-16T07:17:24.687Z,6.93
2018-10-16T07:23:15.619Z,7.09
2018-10-16T07:29:06.445Z,7.89
2018-10-16T07:34:57.371Z,12.51
2018-10-16T07:40:48.260Z,8.42
2018-10-16T07:46:39.129Z,8.14
2018-10-16T07:52:30.032Z,6.05
2018-10-16T07:58:20.930Z,9.26
2018-10-16T08:04:11.829Z,11.43
2018-10-16T08:10:02.711Z,9.11
2018-10-16T08:15:53.596Z,6.45
2018-10-16T08:21:44.505Z,8.62
2018-10-16T08:27:35.384Z,13.04
2018-10-16T08:33:26.295Z,7.46
2018-10-16T08:39:17.174Z,8.05
2018-10-16T08:45:08.191Z,6.72
2018-10-16T08:50:58.980Z,7.61
2018-10-16T08:56:49.862Z,6.29
2018-10-16T09:02:40.751Z,7.06
2018-10-16T09:08:31.673Z,7.2
2018-10-16T09:14:22.649Z,10.58
2018-10-16T09:20:13.504Z,9.39
2018-10-16T09:26:04.386Z,6.77
2018-10-16T09:31:55.271Z,8.39
2018-10-16T09:37:46.305Z,8.76
2018-10-16T09:43:37.094Z,7.76
2018-10-16T09:49:28.001Z,7.18
2018-10-16T09:55:18.846Z,7.88
2018-10-16T10:01:09.756Z,7.74
2018-10-16T10:07:00.667Z,6.09
2018-10-16T10:12:51.585Z,6.72
2018-10-16T10:18:42.444Z,8.26
2018-10-16T10:24:33.347Z,8.01
2018-10-16T10:30:24.286Z,9.18
2018-10-16T10:36:15.203Z,10.45
2018-10-16T10:42:06.139Z,15.21
2018-10-16T10:47:57.043Z,10.78
2018-10-16T10:53:47.913Z,11.35
2018-10-16T10:59:38.822Z,17.91
2018-10-16T11:05:29.715Z,25.32
2018-10-16T11:11:20.659Z,25.07
2018-10-16T11:17:11.545Z,18.79
2018-10-16T11:23:02.448Z,14.52
2018-10-16T11:28:53.384Z,31.62
2018-10-16T11:34:44.276Z,18.14
2018-10-16T11:40:35.190Z,26.51
2018-10-16T11:46:26.154Z,11.71
2018-10-16T11:52:17.104Z,14.34
2018-10-16T11:58:07.960Z,14.12
2018-10-16T12:03:58.823Z,18.93
2018-10-16T12:09:49.732Z,6.66
2018-10-16T12:15:40.667Z,7.19
2018-10-16T12:21:31.572Z,9.4
2018-10-16T12:27:22.477Z,13.11
2018-10-16T12:33:13.492Z,11.8
2018-10-16T12:39:04.367Z,10.82
2018-10-16T12:44:55.208Z,10.38
2018-10-16T12:50:46.150Z,10.36
2018-10-16T12:56:37.068Z,8.63
2018-10-16T13:02:27.928Z,13.79
2018-10-16T13:08:18.841Z,9.53
2018-10-16T13:14:09.820Z,11.98
2018-10-16T13:20:00.695Z,10.92
2018-10-16T13:25:51.659Z,10.6
2018-10-16T13:31:42.468Z,11.14
2018-10-16T13:37:33.385Z,9.91
2018-10-16T13:43:24.375Z,12.1
2018-10-16T13:49:15.188Z,8.7
2018-10-16T13:55:06.092Z,10.69
2018-10-16T14:00:57.029Z,8.19
2018-10-16T14:06:47.963Z,9.9
2018-10-16T14:12:38.842Z,9.25
2018-10-16T14:18:29.752Z,7.93
2018-10-16T14:24:20.641Z,9.22
2018-10-16T14:30:11.541Z,8.97
2018-10-16T14:36:02.475Z,8.96
2018-10-16T14:41:53.370Z,9.21
2018-10-16T14:47:44.307Z,8.15
2018-10-16T14:53:35.154Z,6.49
2018-10-16T14:59:26.063Z,7.59
2018-10-16T15:05:16.951Z,8.16
2018-10-16T15:11:07.852Z,7.79
2018-10-16T15:16:58.759Z,6.57
2018-10-16T15:22:49.672Z,7.29
2018-10-16T15:28:40.627Z,7.45
2018-10-16T15:34:31.481Z,8.05
2018-10-16T15:40:22.370Z,6.99
2018-10-16T15:46:13.340Z,6.74
2018-10-16T15:52:04.238Z,9
2018-10-16T15:57:55.113Z,11.6
2018-10-16T16:03:45.982Z,7.82
2018-10-16T16:09:36.890Z,7.68
2018-10-16T16:15:27.786Z,6.92
2018-10-16T16:21:18.690Z,12.46
2018-10-16T16:27:09.657Z,13.75
2018-10-16T16:33:00.489Z,20.91
2018-10-16T16:38:53.288Z,24.45
2018-10-16T16:50:33.414Z,7.51
2018-10-16T16:56:24.669Z,6.87
2018-10-16T17:02:15.361Z,5.39
2018-10-16T17:08:05.974Z,5.84
2018-10-16T17:13:56.857Z,5.31
2018-10-16T17:19:47.682Z,5.71
2018-10-16T17:25:38.937Z,5.44
2018-10-16T17:31:29.495Z,5.89
2018-10-16T17:37:20.400Z,6.16
2018-10-16T17:43:11.290Z,5.8
2018-10-16T17:49:02.197Z,5.87
2018-10-16T17:54:53.102Z,6.56
2018-10-16T18:00:43.983Z,5.54
2018-10-16T18:06:34.883Z,5.07
2018-10-16T18:12:25.809Z,5.32
2018-10-16T18:18:16.790Z,5.33
2018-10-16T18:24:07.587Z,5.07
2018-10-16T18:29:58.526Z,4.45
2018-10-16T18:35:49.358Z,4.7
2018-10-16T18:41:40.257Z,5.24
2018-10-16T18:47:31.132Z,4.84
2018-10-16T18:53:22.091Z,5.31
2018-10-16T18:59:13.068Z,4.44
2018-10-16T19:05:03.886Z,4.15
2018-10-16T19:10:54.723Z,4.14
2018-10-16T19:16:45.621Z,4.5
2018-10-16T19:22:36.539Z,4.57
2018-10-16T19:28:27.405Z,4.1
2018-10-16T19:34:18.323Z,3.86
2018-10-16T19:40:09.232Z,4.06
2018-10-16T19:46:00.103Z,4.14
2018-10-16T19:51:50.992Z,3.7
2018-10-16T19:57:41.882Z,3.59
2018-10-16T20:03:32.774Z,3.71
2018-10-16T20:09:23.670Z,3.3
2018-10-16T20:15:14.559Z,3.21
2018-10-16T20:21:05.593Z,2.82
2018-10-16T20:26:56.380Z,2.78
2018-10-16T20:32:47.251Z,2.88
2018-10-16T20:38:38.148Z,2.55
2018-10-16T20:44:29.050Z,2.54
2018-10-16T20:50:19.923Z,2.55
2018-10-16T20:56:10.868Z,2.29
2018-10-16T21:02:01.766Z,2.03
2018-10-16T21:07:52.627Z,2.35
2018-10-16T21:13:43.503Z,2.59
2018-10-16T21:19:34.641Z,3.75
2018-10-16T21:25:25.329Z,2.56
2018-10-16T21:31:16.310Z,3.15
2018-10-16T21:37:07.141Z,3.27
2018-10-16T21:42:58.050Z,3.13
2018-10-16T21:48:48.923Z,2.9
2018-10-16T21:54:39.800Z,2.84
2018-10-16T22:00:30.690Z,3.23
2018-10-16T22:06:21.576Z,3.06
2018-10-16T22:12:12.482Z,3.68
2018-10-16T22:18:03.394Z,3.96
2018-10-16T22:23:54.252Z,3.79
2018-10-16T22:29:45.160Z,4.56
2018-10-16T22:35:36.066Z,4.09
2018-10-16T22:41:26.936Z,7.74
2018-10-16T22:47:17.827Z,4.65
2018-10-16T22:53:08.827Z,5.18
2018-10-16T22:58:59.652Z,5.88
2018-10-16T23:04:50.552Z,5.36
2018-10-16T23:10:41.389Z,5.41
2018-10-16T23:16:32.287Z,5.14
2018-10-16T23:22:23.158Z,6.06
2018-10-16T23:28:14.079Z,5.92
2018-10-16T23:34:04.947Z,6.22
2018-10-16T23:39:55.864Z,6.5
2018-10-16T23:45:46.846Z,9.35
2018-10-16T23:51:37.622Z,7.16
2018-10-16T23:57:28.535Z,6.94
